Time;durP1;ratioP1;P1;durP2;ratioP2;P2;SDS_P1;SDS_P2;PMS_P1;PMS_P2;Temp;Humidity;BMP_temperature;BMP_pressure;BME280_temperature;BME280_humidity;BME280_pressure;Samples;Min_cycle;Max_cycle;Signal;HPM_P1;HPM_P2
2021/10/29 00:03:10;;;;;;;;;;;4.40;99.90;;;;;;20981504;28;19912;-79
2021/10/29 00:13:11;;;;;;;;;;;4.30;99.90;;;;;;20970119;28;19916;-80
2021/10/29 00:23:11;;;;;;;;;;;4.30;99.90;;;;;;20971846;28;19913;-82
2021/10/29 00:33:15;;;;;;;;;;;4.20;99.90;;;;;;20984496;28;19916;-80
2021/10/29 00:43:16;;;;;;;;;;;4.20;99.90;;;;;;20985480;28;20485;-80
2021/10/29 00:53:17;;;;;;;;;;;4.10;99.90;;;;;;20978378;28;19923;-80
2021/10/29 01:03:18;;;;;;;;;;;4.20;99.90;;;;;;20954062;28;20089;-80
2021/10/29 01:13:19;;;;;;;;;;;4.30;99.90;;;;;;20963157;28;19916;-78
2021/10/29 01:23:19;;;;;;;;;;;4.30;99.90;;;;;;20976955;28;19912;-81
2021/10/29 01:33:20;;;;;;;;;;;4.20;99.90;;;;;;20972565;28;19923;-79
2021/10/29 01:43:21;;;;;;;;;;;4.40;99.90;;;;;;20975926;28;19913;-79
2021/10/29 01:53:22;;;;;;;;;;;4.40;99.90;;;;;;20974996;28;19917;-80
2021/10/29 02:03:22;;;;;;;;;;;4.50;99.90;;;;;;20984278;28;19935;-80
2021/10/29 02:13:23;;;;;;;;;;;4.50;99.90;;;;;;20991104;28;19927;-80
2021/10/29 02:23:24;;;;;;;;;;;4.50;99.90;;;;;;20967435;28;19920;-80
2021/10/29 02:33:25;;;;;;;;;;;4.50;99.90;;;;;;20977151;28;19955;-78
2021/10/29 02:43:25;;;;;;;;;;;4.50;99.90;;;;;;20958433;28;19913;-79
2021/10/29 02:53:26;;;;;;;;;;;4.50;99.90;;;;;;20985996;28;19928;-80
2021/10/29 03:03:28;;;;;;;;;;;4.60;99.90;;;;;;20973612;28;19966;-80
2021/10/29 03:13:29;;;;;;;;;;;4.60;99.90;;;;;;20979291;28;19963;-80
2021/10/29 03:23:29;;;;;;;;;;;4.80;99.90;;;;;;20981340;28;19913;-80
2021/10/29 03:33:36;;;;;;;;;;;4.80;99.90;;;;;;20973058;28;19917;-79
2021/10/29 03:44:03;;;;;;;;;;;4.80;99.90;;;;;;20965457;28;19913;-80
2021/10/29 04:04:01;;;;;;;;;;;5.00;99.90;;;;;;20976763;28;19913;-81
2021/10/29 04:14:05;;;;;;;;;;;5.00;99.90;;;;;;20975070;28;19924;-81
2021/10/29 04:24:06;;;;;;;;;;;5.10;99.90;;;;;;20950040;28;19912;-81
2021/10/29 04:34:07;;;;;;;;;;;5.10;99.90;;;;;;20954417;28;19976;-81
2021/10/29 04:44:08;;;;;;;;;;;5.20;99.90;;;;;;20982146;28;19913;-80
2021/10/29 04:54:09;;;;;;;;;;;5.20;99.90;;;;;;20975204;28;20004;-81
2021/10/29 05:04:09;;;;;;;;;;;5.30;99.90;;;;;;20982858;28;19919;-81
2021/10/29 05:14:10;;;;;;;;;;;5.30;99.90;;;;;;20983086;28;19916;-77
2021/10/29 05:24:11;;;;;;;;;;;5.30;99.90;;;;;;20992980;28;19912;-77
2021/10/29 05:34:12;;;;;;;;;;;5.10;99.90;;;;;;21004298;28;19920;-77
2021/10/29 05:44:13;;;;;;;;;;;5.10;99.90;;;;;;21004155;28;19913;-77
2021/10/29 06:04:34;;;;;;;;;;;5.10;99.90;;;;;;20993919;28;19921;-77
2021/10/29 06:14:36;;;;;;;;;;;5.10;99.90;;;;;;20934753;28;20424;-80
2021/10/29 06:24:37;;;;;;;;;;;5.10;99.90;;;;;;20958276;28;19913;-80
2021/10/29 06:34:38;;;;;;;;;;;5.20;99.90;;;;;;20963320;28;19924;-80
2021/10/29 06:45:01;;;;;;;;;;;5.30;99.90;;;;;;20963138;28;19913;-80
2021/10/29 07:46:37;;;;;;;;;;;5.80;99.90;;;;;;20974128;28;19924;-80
2021/10/29 07:56:38;;;;;;;;;;;5.90;99.90;;;;;;20970459;28;19955;-81
2021/10/29 08:06:39;;;;;;;;;;;5.90;99.90;;;;;;20973916;28;19916;-83
2021/10/29 08:16:40;;;;;;;;;;;5.90;99.90;;;;;;20988272;28;19919;-81
2021/10/29 08:26:41;;;;;;;;;;;5.90;99.90;;;;;;20979431;28;19916;-81
2021/10/29 08:36:43;;;;;;;;;;;5.90;99.90;;;;;;20988020;28;19917;-81
2021/10/29 08:46:44;;;;;;;;;;;5.90;99.90;;;;;;20980520;28;19913;-80
2021/10/29 08:56:45;;;;;;;;;;;6.00;99.90;;;;;;20978301;28;20387;-81
2021/10/29 09:06:59;;;;;;;;;;;6.10;99.90;;;;;;20992203;28;19987;-80
2021/10/29 09:37:34;;;;;;;;;;;6.40;99.90;;;;;;20969072;28;19955;-79
2021/10/29 09:47:39;;;;;;;;;;;6.40;99.90;;;;;;20937019;28;20319;-79
2021/10/29 09:57:39;;;;;;;;;;;6.60;99.90;;;;;;20948711;28;19912;-80
2021/10/29 10:07:44;;;;;;;;;;;6.60;99.90;;;;;;20950514;28;19988;-80
2021/10/29 10:17:45;;;;;;;;;;;6.60;99.90;;;;;;20981136;28;19917;-81
2021/10/29 10:48:32;;;;;;;;;;;6.90;99.90;;;;;;20958455;28;20123;-80
2021/10/29 11:19:17;;;;;;;;;;;7.20;99.90;;;;;;20962279;28;19919;-81
2021/10/29 11:29:18;;;;;;;;;;;7.40;99.90;;;;;;20964261;28;19938;-80
2021/10/29 11:39:21;;;;;;;;;;;7.50;99.90;;;;;;20946040;28;19917;-81
2021/10/29 11:49:25;;;;;;;;;;;7.60;99.90;;;;;;20918751;28;19943;-82
2021/10/29 12:09:28;;;;;;;;;;;7.40;99.90;;;;;;20885061;28;19951;-82
2021/10/29 12:19:29;;;;;;;;;;;7.70;99.90;;;;;;20888282;28;19923;-78
2021/10/29 12:29:33;;;;;;;;;;;7.90;99.90;;;;;;20887006;28;19921;-79
2021/10/29 13:10:42;;;;;;;;;;;8.40;99.90;;;;;;20854040;28;19951;-80
2021/10/29 14:01:43;;;;;;;;;;;10.10;99.90;;;;;;20923087;28;19927;-79
2021/10/29 14:32:42;;;;;;;;;;;11.20;99.90;;;;;;20938672;28;19932;-80
2021/10/29 14:42:48;;;;;;;;;;;11.30;99.90;;;;;;20918716;28;19967;-80
2021/10/29 14:53:16;;;;;;;;;;;11.30;99.90;;;;;;20914239;28;19968;-79
2021/10/29 15:44:32;;;;;;;;;;;8.60;99.90;;;;;;20887939;28;19920;-82
2021/10/29 15:54:39;;;;;;;;;;;8.00;99.90;;;;;;20870292;28;19920;-83
2021/10/29 16:25:21;;;;;;;;;;;7.80;99.90;;;;;;20885228;28;19956;-79
2021/10/29 16:35:22;;;;;;;;;;;7.70;99.90;;;;;;20879549;28;19960;-78
2021/10/29 16:45:23;;;;;;;;;;;7.70;99.90;;;;;;20882098;28;19963;-81
2021/10/29 16:55:26;;;;;;;;;;;7.60;99.90;;;;;;20895109;28;19937;-80
2021/10/29 17:05:27;;;;;;;;;;;7.60;99.90;;;;;;20879218;28;19921;-80
2021/10/29 17:15:28;;;;;;;;;;;7.60;99.90;;;;;;20879653;28;21258;-80
2021/10/29 17:25:29;;;;;;;;;;;7.60;99.90;;;;;;20873296;28;19920;-81
2021/10/29 17:35:29;;;;;;;;;;;7.40;99.90;;;;;;20897248;28;19939;-79
2021/10/29 17:45:30;;;;;;;;;;;7.20;99.90;;;;;;20916129;28;19978;-81
2021/10/29 17:55:36;;;;;;;;;;;7.20;99.90;;;;;;20915189;28;19951;-80
2021/10/29 18:05:37;;;;;;;;;;;7.10;99.90;;;;;;20897174;28;19921;-80
2021/10/29 18:15:39;;;;;;;;;;;7.00;99.90;;;;;;20926164;28;20018;-82
2021/10/29 18:25:40;;;;;;;;;;;7.00;99.90;;;;;;20948865;28;19925;-82
2021/10/29 18:35:41;;;;;;;;;;;6.90;99.90;;;;;;20939603;28;19962;-79
2021/10/29 18:45:42;;;;;;;;;;;6.90;99.90;;;;;;20932287;28;19929;-79
2021/10/29 18:55:42;;;;;;;;;;;6.70;99.90;;;;;;20912630;28;19928;-80
2021/10/29 19:05:43;;;;;;;;;;;6.60;99.90;;;;;;20908011;28;19924;-81
2021/10/29 19:15:44;;;;;;;;;;;6.50;99.90;;;;;;20926639;28;19928;-81
2021/10/29 19:25:46;;;;;;;;;;;6.50;99.90;;;;;;20945667;28;19931;-81
2021/10/29 19:35:54;;;;;;;;;;;6.50;99.90;;;;;;20924533;28;19931;-80
2021/10/29 19:45:54;;;;;;;;;;;6.50;99.90;;;;;;20928988;28;19927;-80
2021/10/29 19:55:55;;;;;;;;;;;6.40;99.90;;;;;;20953542;28;19929;-81
2021/10/29 20:05:57;;;;;;;;;;;6.40;99.90;;;;;;20953925;28;19984;-81
2021/10/29 20:16:00;;;;;;;;;;;6.40;99.90;;;;;;20929671;28;19951;-82
2021/10/29 20:26:01;;;;;;;;;;;6.30;99.90;;;;;;20910100;28;19943;-81
2021/10/29 20:36:02;;;;;;;;;;;6.30;99.90;;;;;;20918286;28;19925;-81
2021/10/29 20:46:03;;;;;;;;;;;6.20;99.90;;;;;;20957066;28;19925;-81
2021/10/29 20:56:04;;;;;;;;;;;6.10;99.90;;;;;;20920701;28;19924;-82
2021/10/29 21:06:07;;;;;;;;;;;6.10;99.90;;;;;;20949622;28;20189;-81
2021/10/29 21:16:08;;;;;;;;;;;6.10;99.90;;;;;;20967266;28;19925;-81
2021/10/29 21:26:09;;;;;;;;;;;6.10;99.90;;;;;;20955216;28;19916;-82
2021/10/29 21:36:09;;;;;;;;;;;6.00;99.90;;;;;;20942276;28;19921;-80
2021/10/29 21:46:10;;;;;;;;;;;5.80;99.90;;;;;;20964895;28;19991;-80
2021/10/29 21:56:11;;;;;;;;;;;5.70;99.90;;;;;;20961967;28;19925;-80
2021/10/29 22:06:12;;;;;;;;;;;5.60;99.90;;;;;;20962141;28;19921;-80
2021/10/29 22:16:12;;;;;;;;;;;5.50;99.90;;;;;;20961733;28;20807;-79
2021/10/29 22:26:13;;;;;;;;;;;5.50;99.90;;;;;;20959845;28;19923;-80
2021/10/29 22:36:14;;;;;;;;;;;5.50;99.90;;;;;;20943269;28;19928;-81
2021/10/29 22:46:15;;;;;;;;;;;5.50;99.90;;;;;;20943793;28;19925;-80
2021/10/29 22:56:16;;;;;;;;;;;5.40;99.90;;;;;;20940497;28;19948;-81
2021/10/29 23:06:18;;;;;;;;;;;5.50;99.90;;;;;;20959525;28;19909;-81
2021/10/29 23:16:19;;;;;;;;;;;5.40;99.90;;;;;;20954870;28;19932;-79
2021/10/29 23:26:19;;;;;;;;;;;5.50;99.90;;;;;;20933799;28;20028;-80
2021/10/29 23:36:20;;;;;;;;;;;5.40;99.90;;;;;;20932963;28;19924;-81
2021/10/29 23:46:21;;;;;;;;;;;5.20;99.90;;;;;;20942957;28;19924;-81
2021/10/29 23:56:22;;;;;;;;;;;5.20;99.90;;;;;;20957185;28;19925;-81
